sensor_id;sensor_type;location;lat;lon;timestamp;P1;durP1;ratioP1;P2;durP2;ratioP2
15153;SDS011;7677;41.896;25.004;2022-11-15T00:02:19;11.63;;;7.93;;
15153;SDS011;7677;41.896;25.004;2022-11-15T00:04:47;14.70;;;8.73;;
15153;SDS011;7677;41.896;25.004;2022-11-15T00:07:14;14.17;;;8.60;;
15153;SDS011;7677;41.896;25.004;2022-11-15T00:09:42;14.47;;;8.70;;
15153;SDS011;7677;41.896;25.004;2022-11-15T00:12:09;14.10;;;8.70;;
15153;SDS011;7677;41.896;25.004;2022-11-15T00:14:36;17.00;;;8.27;;
15153;SDS011;7677;41.896;25.004;2022-11-15T00:17:03;13.20;;;8.97;;
15153;SDS011;7677;41.896;25.004;2022-11-15T00:19:30;12.83;;;7.70;;
15153;SDS011;7677;41.896;25.004;2022-11-15T00:21:59;17.93;;;9.23;;
15153;SDS011;7677;41.896;25.004;2022-11-15T00:24:26;15.87;;;8.30;;
15153;SDS011;7677;41.896;25.004;2022-11-15T00:26:53;15.63;;;8.60;;
15153;SDS011;7677;41.896;25.004;2022-11-15T00:29:20;14.83;;;7.90;;
15153;SDS011;7677;41.896;25.004;2022-11-15T00:31:47;16.97;;;8.60;;
15153;SDS011;7677;41.896;25.004;2022-11-15T00:34:15;13.00;;;7.70;;
15153;SDS011;7677;41.896;25.004;2022-11-15T00:36:42;15.57;;;8.40;;
15153;SDS011;7677;41.896;25.004;2022-11-15T00:39:10;16.57;;;8.73;;
15153;SDS011;7677;41.896;25.004;2022-11-15T00:41:37;14.50;;;7.67;;
15153;SDS011;7677;41.896;25.004;2022-11-15T00:44:05;13.03;;;8.07;;
15153;SDS011;7677;41.896;25.004;2022-11-15T00:46:32;13.67;;;7.93;;
15153;SDS011;7677;41.896;25.004;2022-11-15T00:48:59;14.63;;;8.47;;
15153;SDS011;7677;41.896;25.004;2022-11-15T00:51:26;13.43;;;7.93;;
15153;SDS011;7677;41.896;25.004;2022-11-15T00:53:53;14.33;;;8.17;;
15153;SDS011;7677;41.896;25.004;2022-11-15T00:56:22;10.53;;;7.30;;
15153;SDS011;7677;41.896;25.004;2022-11-15T00:58:49;11.17;;;7.93;;
15153;SDS011;7677;41.896;25.004;2022-11-15T01:01:16;13.27;;;8.67;;
15153;SDS011;7677;41.896;25.004;2022-11-15T01:03:43;17.07;;;8.03;;
15153;SDS011;7677;41.896;25.004;2022-11-15T01:06:11;12.30;;;7.30;;
15153;SDS011;7677;41.896;25.004;2022-11-15T01:08:38;14.03;;;7.50;;
15153;SDS011;7677;41.896;25.004;2022-11-15T01:11:06;11.73;;;7.77;;
15153;SDS011;7677;41.896;25.004;2022-11-15T01:13:36;14.73;;;7.93;;
15153;SDS011;7677;41.896;25.004;2022-11-15T01:16:07;14.00;;;8.13;;
15153;SDS011;7677;41.896;25.004;2022-11-15T01:18:35;13.20;;;8.60;;
15153;SDS011;7677;41.896;25.004;2022-11-15T01:21:07;13.33;;;8.33;;
15153;SDS011;7677;41.896;25.004;2022-11-15T01:23:34;13.07;;;8.07;;
15153;SDS011;7677;41.896;25.004;2022-11-15T01:26:02;14.57;;;8.10;;
15153;SDS011;7677;41.896;25.004;2022-11-15T01:28:30;12.57;;;8.63;;
15153;SDS011;7677;41.896;25.004;2022-11-15T01:30:59;10.93;;;7.13;;
15153;SDS011;7677;41.896;25.004;2022-11-15T01:33:27;13.73;;;7.80;;
15153;SDS011;7677;41.896;25.004;2022-11-15T01:35:54;13.67;;;8.33;;
15153;SDS011;7677;41.896;25.004;2022-11-15T01:38:22;12.87;;;7.90;;
15153;SDS011;7677;41.896;25.004;2022-11-15T01:40:49;14.30;;;8.03;;
15153;SDS011;7677;41.896;25.004;2022-11-15T01:43:23;12.50;;;7.90;;
15153;SDS011;7677;41.896;25.004;2022-11-15T01:45:51;13.60;;;6.97;;
15153;SDS011;7677;41.896;25.004;2022-11-15T01:48:23;10.50;;;6.83;;
15153;SDS011;7677;41.896;25.004;2022-11-15T01:50:52;12.63;;;8.37;;
15153;SDS011;7677;41.896;25.004;2022-11-15T01:53:19;11.67;;;7.43;;
15153;SDS011;7677;41.896;25.004;2022-11-15T01:55:48;14.95;;;10.30;;
15153;SDS011;7677;41.896;25.004;2022-11-15T01:58:15;13.47;;;8.30;;
15153;SDS011;7677;41.896;25.004;2022-11-15T02:00:42;14.27;;;8.20;;
15153;SDS011;7677;41.896;25.004;2022-11-15T02:03:09;13.23;;;8.33;;
15153;SDS011;7677;41.896;25.004;2022-11-15T02:05:38;14.70;;;8.13;;
15153;SDS011;7677;41.896;25.004;2022-11-15T02:08:05;14.33;;;8.40;;
15153;SDS011;7677;41.896;25.004;2022-11-15T02:10:33;13.97;;;8.50;;
15153;SDS011;7677;41.896;25.004;2022-11-15T02:13:00;14.60;;;9.17;;
15153;SDS011;7677;41.896;25.004;2022-11-15T02:15:30;16.67;;;9.13;;
15153;SDS011;7677;41.896;25.004;2022-11-15T02:18:05;18.00;;;9.83;;
15153;SDS011;7677;41.896;25.004;2022-11-15T02:20:42;13.43;;;8.37;;
15153;SDS011;7677;41.896;25.004;2022-11-15T02:23:17;16.40;;;9.53;;
15153;SDS011;7677;41.896;25.004;2022-11-15T02:25:57;13.73;;;8.53;;
15153;SDS011;7677;41.896;25.004;2022-11-15T07:03:01;34.30;;;16.73;;
15153;SDS011;7677;41.896;25.004;2022-11-15T07:05:29;30.67;;;16.53;;
15153;SDS011;7677;41.896;25.004;2022-11-15T07:07:56;24.47;;;14.63;;
15153;SDS011;7677;41.896;25.004;2022-11-15T07:10:24;29.83;;;15.23;;
15153;SDS011;7677;41.896;25.004;2022-11-15T07:12:52;25.87;;;15.03;;
15153;SDS011;7677;41.896;25.004;2022-11-15T07:15:20;31.10;;;16.50;;
15153;SDS011;7677;41.896;25.004;2022-11-15T07:17:48;24.90;;;14.90;;
15153;SDS011;7677;41.896;25.004;2022-11-15T07:20:17;25.97;;;15.23;;
15153;SDS011;7677;41.896;25.004;2022-11-15T07:22:45;29.43;;;16.27;;
15153;SDS011;7677;41.896;25.004;2022-11-15T07:25:12;28.10;;;15.53;;
15153;SDS011;7677;41.896;25.004;2022-11-15T07:27:39;22.93;;;15.13;;
15153;SDS011;7677;41.896;25.004;2022-11-15T07:30:07;26.50;;;15.90;;
15153;SDS011;7677;41.896;25.004;2022-11-15T07:32:35;20.57;;;14.03;;
15153;SDS011;7677;41.896;25.004;2022-11-15T07:35:02;22.57;;;14.57;;
15153;SDS011;7677;41.896;25.004;2022-11-15T07:37:31;22.97;;;13.63;;
15153;SDS011;7677;41.896;25.004;2022-11-15T07:39:58;20.63;;;13.40;;
15153;SDS011;7677;41.896;25.004;2022-11-15T07:42:25;22.20;;;13.43;;
15153;SDS011;7677;41.896;25.004;2022-11-15T07:45:18;25.23;;;13.57;;
15153;SDS011;7677;41.896;25.004;2022-11-15T07:47:45;23.53;;;12.83;;
15153;SDS011;7677;41.896;25.004;2022-11-15T07:50:13;24.77;;;14.10;;
15153;SDS011;7677;41.896;25.004;2022-11-15T07:52:42;26.70;;;14.40;;
15153;SDS011;7677;41.896;25.004;2022-11-15T07:55:09;18.63;;;11.43;;
15153;SDS011;7677;41.896;25.004;2022-11-15T07:57:36;23.73;;;12.80;;
15153;SDS011;7677;41.896;25.004;2022-11-15T08:00:03;20.57;;;11.67;;
15153;SDS011;7677;41.896;25.004;2022-11-15T08:02:31;22.73;;;12.80;;
15153;SDS011;7677;41.896;25.004;2022-11-15T08:04:59;18.43;;;12.20;;
15153;SDS011;7677;41.896;25.004;2022-11-15T08:07:28;19.97;;;11.70;;
15153;SDS011;7677;41.896;25.004;2022-11-15T08:09:57;16.63;;;10.20;;
15153;SDS011;7677;41.896;25.004;2022-11-15T08:12:26;18.33;;;10.77;;
15153;SDS011;7677;41.896;25.004;2022-11-15T08:14:54;18.70;;;11.37;;
15153;SDS011;7677;41.896;25.004;2022-11-15T08:17:21;22.07;;;12.10;;
15153;SDS011;7677;41.896;25.004;2022-11-15T08:19:48;19.20;;;11.83;;
15153;SDS011;7677;41.896;25.004;2022-11-15T08:22:17;19.33;;;11.67;;
15153;SDS011;7677;41.896;25.004;2022-11-15T08:24:45;24.20;;;14.40;;
15153;SDS011;7677;41.896;25.004;2022-11-15T08:27:13;30.00;;;15.63;;
15153;SDS011;7677;41.896;25.004;2022-11-15T08:29:44;24.13;;;13.80;;
15153;SDS011;7677;41.896;25.004;2022-11-15T08:32:11;22.43;;;13.60;;
15153;SDS011;7677;41.896;25.004;2022-11-15T08:34:38;24.93;;;14.00;;
15153;SDS011;7677;41.896;25.004;2022-11-15T08:37:05;25.97;;;14.90;;
15153;SDS011;7677;41.896;25.004;2022-11-15T08:39:33;31.40;;;16.90;;
15153;SDS011;7677;41.896;25.004;2022-11-15T08:42:00;35.43;;;17.83;;
15153;SDS011;7677;41.896;25.004;2022-11-15T08:44:28;33.90;;;18.07;;
15153;SDS011;7677;41.896;25.004;2022-11-15T08:46:55;33.57;;;18.87;;
15153;SDS011;7677;41.896;25.004;2022-11-15T08:49:23;30.00;;;17.30;;
15153;SDS011;7677;41.896;25.004;2022-11-15T08:51:50;31.60;;;18.50;;
15153;SDS011;7677;41.896;25.004;2022-11-15T08:54:17;29.37;;;18.00;;
15153;SDS011;7677;41.896;25.004;2022-11-15T08:56:44;32.60;;;17.50;;
15153;SDS011;7677;41.896;25.004;2022-11-15T08:59:11;34.73;;;18.83;;
15153;SDS011;7677;41.896;25.004;2022-11-15T09:01:40;27.33;;;16.67;;
15153;SDS011;7677;41.896;25.004;2022-11-15T09:04:07;31.87;;;17.07;;
15153;SDS011;7677;41.896;25.004;2022-11-15T09:06:34;30.50;;;16.33;;
15153;SDS011;7677;41.896;25.004;2022-11-15T09:09:01;28.03;;;16.17;;
15153;SDS011;7677;41.896;25.004;2022-11-15T09:11:29;26.73;;;15.47;;
15153;SDS011;7677;41.896;25.004;2022-11-15T09:13:56;29.47;;;16.93;;
15153;SDS011;7677;41.896;25.004;2022-11-15T09:16:23;30.60;;;17.07;;
15153;SDS011;7677;41.896;25.004;2022-11-15T09:18:52;30.23;;;17.37;;
15153;SDS011;7677;41.896;25.004;2022-11-15T09:21:19;25.50;;;14.73;;
15153;SDS011;7677;41.896;25.004;2022-11-15T09:23:46;28.90;;;16.27;;
15153;SDS011;7677;41.896;25.004;2022-11-15T09:26:16;28.50;;;16.67;;
15153;SDS011;7677;41.896;25.004;2022-11-15T09:28:43;23.53;;;14.73;;
15153;SDS011;7677;41.896;25.004;2022-11-15T09:31:10;23.77;;;14.53;;
15153;SDS011;7677;41.896;25.004;2022-11-15T09:33:37;24.47;;;15.13;;
15153;SDS011;7677;41.896;25.004;2022-11-15T09:36:07;21.53;;;13.13;;
15153;SDS011;7677;41.896;25.004;2022-11-15T09:38:35;20.30;;;13.67;;
15153;SDS011;7677;41.896;25.004;2022-11-15T09:41:21;23.33;;;13.80;;
15153;SDS011;7677;41.896;25.004;2022-11-15T09:44:04;17.80;;;11.70;;
15153;SDS011;7677;41.896;25.004;2022-11-15T09:46:40;20.77;;;12.57;;
15153;SDS011;7677;41.896;25.004;2022-11-15T09:49:11;23.93;;;14.10;;
15153;SDS011;7677;41.896;25.004;2022-11-15T09:51:43;22.10;;;14.13;;
15153;SDS011;7677;41.896;25.004;2022-11-15T09:54:16;24.93;;;15.03;;
15153;SDS011;7677;41.896;25.004;2022-11-15T09:56:50;24.33;;;13.77;;
15153;SDS011;7677;41.896;25.004;2022-11-15T09:59:23;26.43;;;14.13;;
15153;SDS011;7677;41.896;25.004;2022-11-15T10:02:10;24.17;;;15.33;;
15153;SDS011;7677;41.896;25.004;2022-11-15T10:04:45;22.00;;;15.03;;
15153;SDS011;7677;41.896;25.004;2022-11-15T10:07:15;22.07;;;12.37;;
15153;SDS011;7677;41.896;25.004;2022-11-15T10:09:46;25.00;;;14.50;;
15153;SDS011;7677;41.896;25.004;2022-11-15T10:12:15;32.63;;;14.50;;
15153;SDS011;7677;41.896;25.004;2022-11-15T10:14:43;22.77;;;14.40;;
15153;SDS011;7677;41.896;25.004;2022-11-15T10:20:17;24.43;;;14.17;;
15153;SDS011;7677;41.896;25.004;2022-11-15T10:22:49;19.57;;;12.23;;
15153;SDS011;7677;41.896;25.004;2022-11-15T10:25:18;21.63;;;12.93;;
15153;SDS011;7677;41.896;25.004;2022-11-15T10:27:50;19.57;;;12.90;;
15153;SDS011;7677;41.896;25.004;2022-11-15T10:30:20;19.63;;;12.60;;
15153;SDS011;7677;41.896;25.004;2022-11-15T10:32:47;16.47;;;11.27;;
15153;SDS011;7677;41.896;25.004;2022-11-15T10:35:19;19.13;;;13.33;;
15153;SDS011;7677;41.896;25.004;2022-11-15T10:37:50;20.43;;;13.23;;
15153;SDS011;7677;41.896;25.004;2022-11-15T10:40:19;18.73;;;13.20;;
15153;SDS011;7677;41.896;25.004;2022-11-15T10:42:47;26.57;;;15.23;;
15153;SDS011;7677;41.896;25.004;2022-11-15T10:45:25;18.37;;;12.53;;
15153;SDS011;7677;41.896;25.004;2022-11-15T10:47:53;33.13;;;17.43;;
15153;SDS011;7677;41.896;25.004;2022-11-15T10:50:50;18.70;;;12.20;;
15153;SDS011;7677;41.896;25.004;2022-11-15T10:53:25;17.13;;;11.77;;
15153;SDS011;7677;41.896;25.004;2022-11-15T10:55:57;19.57;;;13.30;;
15153;SDS011;7677;41.896;25.004;2022-11-15T10:58:30;22.57;;;13.13;;
15153;SDS011;7677;41.896;25.004;2022-11-15T11:01:09;24.63;;;15.10;;
15153;SDS011;7677;41.896;25.004;2022-11-15T11:03:43;24.47;;;14.20;;
15153;SDS011;7677;41.896;25.004;2022-11-15T11:06:12;20.67;;;12.17;;
15153;SDS011;7677;41.896;25.004;2022-11-15T11:08:42;20.07;;;14.07;;
15153;SDS011;7677;41.896;25.004;2022-11-15T11:11:21;20.00;;;13.33;;
15153;SDS011;7677;41.896;25.004;2022-11-15T11:13:48;20.47;;;11.90;;
15153;SDS011;7677;41.896;25.004;2022-11-15T11:16:34;17.73;;;11.27;;
15153;SDS011;7677;41.896;25.004;2022-11-15T11:19:12;21.67;;;13.23;;
15153;SDS011;7677;41.896;25.004;2022-11-15T11:21:59;20.50;;;12.47;;
15153;SDS011;7677;41.896;25.004;2022-11-15T11:24:33;19.40;;;12.30;;
15153;SDS011;7677;41.896;25.004;2022-11-15T11:27:13;22.10;;;14.57;;
15153;SDS011;7677;41.896;25.004;2022-11-15T11:29:57;19.67;;;12.53;;
15153;SDS011;7677;41.896;25.004;2022-11-15T11:32:40;20.43;;;12.87;;
15153;SDS011;7677;41.896;25.004;2022-11-15T11:35:17;20.87;;;12.03;;
15153;SDS011;7677;41.896;25.004;2022-11-15T11:37:48;19.97;;;12.60;;
15153;SDS011;7677;41.896;25.004;2022-11-15T11:40:24;23.87;;;14.03;;
15153;SDS011;7677;41.896;25.004;2022-11-15T11:42:56;22.97;;;14.60;;
15153;SDS011;7677;41.896;25.004;2022-11-15T11:45:32;26.40;;;16.23;;
15153;SDS011;7677;41.896;25.004;2022-11-15T11:48:12;21.80;;;14.20;;
15153;SDS011;7677;41.896;25.004;2022-11-15T11:50:40;18.63;;;13.33;;
15153;SDS011;7677;41.896;25.004;2022-11-15T11:53:09;22.30;;;13.00;;
15153;SDS011;7677;41.896;25.004;2022-11-15T11:55:41;18.80;;;12.53;;
15153;SDS011;7677;41.896;25.004;2022-11-15T11:58:11;22.80;;;14.27;;
15153;SDS011;7677;41.896;25.004;2022-11-15T12:00:41;22.23;;;13.63;;
15153;SDS011;7677;41.896;25.004;2022-11-15T12:03:11;24.43;;;14.20;;
15153;SDS011;7677;41.896;25.004;2022-11-15T12:05:41;21.87;;;13.90;;
15153;SDS011;7677;41.896;25.004;2022-11-15T12:11:08;22.47;;;12.73;;
15153;SDS011;7677;41.896;25.004;2022-11-15T12:13:38;25.67;;;13.77;;
15153;SDS011;7677;41.896;25.004;2022-11-15T12:16:07;17.83;;;12.37;;
15153;SDS011;7677;41.896;25.004;2022-11-15T12:18:38;17.37;;;11.67;;
15153;SDS011;7677;41.896;25.004;2022-11-15T12:21:13;23.83;;;15.03;;
15153;SDS011;7677;41.896;25.004;2022-11-15T12:23:43;23.90;;;14.90;;
15153;SDS011;7677;41.896;25.004;2022-11-15T12:26:16;25.73;;;14.43;;
15153;SDS011;7677;41.896;25.004;2022-11-15T12:28:46;21.57;;;13.97;;
15153;SDS011;7677;41.896;25.004;2022-11-15T12:31:16;23.03;;;14.23;;
15153;SDS011;7677;41.896;25.004;2022-11-15T12:33:46;22.37;;;14.20;;
15153;SDS011;7677;41.896;25.004;2022-11-15T12:38:57;23.60;;;13.93;;
15153;SDS011;7677;41.896;25.004;2022-11-15T12:41:27;21.70;;;13.13;;
15153;SDS011;7677;41.896;25.004;2022-11-15T12:43:55;25.07;;;14.53;;
15153;SDS011;7677;41.896;25.004;2022-11-15T12:49:47;28.30;;;15.53;;
15153;SDS011;7677;41.896;25.004;2022-11-15T12:52:14;27.33;;;16.17;;
15153;SDS011;7677;41.896;25.004;2022-11-15T12:54:55;28.40;;;16.67;;
15153;SDS011;7677;41.896;25.004;2022-11-15T12:57:32;24.57;;;15.87;;
15153;SDS011;7677;41.896;25.004;2022-11-15T13:03:25;25.03;;;14.57;;
15153;SDS011;7677;41.896;25.004;2022-11-15T13:06:06;24.77;;;14.63;;
15153;SDS011;7677;41.896;25.004;2022-11-15T13:08:49;23.97;;;15.03;;
15153;SDS011;7677;41.896;25.004;2022-11-15T13:23:00;32.83;;;16.83;;
15153;SDS011;7677;41.896;25.004;2022-11-15T13:28:42;25.50;;;15.50;;
15153;SDS011;7677;41.896;25.004;2022-11-15T13:33:59;27.33;;;15.97;;
15153;SDS011;7677;41.896;25.004;2022-11-15T13:36:28;21.97;;;14.63;;
15153;SDS011;7677;41.896;25.004;2022-11-15T13:38:59;24.57;;;14.27;;
15153;SDS011;7677;41.896;25.004;2022-11-15T13:41:28;25.47;;;14.37;;
15153;SDS011;7677;41.896;25.004;2022-11-15T13:43:56;23.83;;;14.77;;
15153;SDS011;7677;41.896;25.004;2022-11-15T13:46:25;28.83;;;16.77;;
15153;SDS011;7677;41.896;25.004;2022-11-15T13:48:54;24.10;;;14.53;;
15153;SDS011;7677;41.896;25.004;2022-11-15T13:51:32;24.30;;;15.17;;
15153;SDS011;7677;41.896;25.004;2022-11-15T13:54:03;25.57;;;14.80;;
15153;SDS011;7677;41.896;25.004;2022-11-15T13:56:36;26.10;;;16.67;;
15153;SDS011;7677;41.896;25.004;2022-11-15T13:59:15;27.23;;;15.87;;
15153;SDS011;7677;41.896;25.004;2022-11-15T14:01:45;28.03;;;15.63;;
15153;SDS011;7677;41.896;25.004;2022-11-15T14:04:12;26.50;;;15.73;;
15153;SDS011;7677;41.896;25.004;2022-11-15T14:06:45;27.17;;;16.23;;
15153;SDS011;7677;41.896;25.004;2022-11-15T14:09:24;28.30;;;16.67;;
15153;SDS011;7677;41.896;25.004;2022-11-15T14:11:57;29.13;;;16.30;;
15153;SDS011;7677;41.896;25.004;2022-11-15T14:14:25;28.97;;;16.60;;
15153;SDS011;7677;41.896;25.004;2022-11-15T14:16:53;25.47;;;16.13;;
15153;SDS011;7677;41.896;25.004;2022-11-15T14:19:34;30.70;;;16.90;;
15153;SDS011;7677;41.896;25.004;2022-11-15T14:22:15;26.60;;;15.63;;
15153;SDS011;7677;41.896;25.004;2022-11-15T14:24:46;36.07;;;18.13;;
15153;SDS011;7677;41.896;25.004;2022-11-15T14:27:30;31.10;;;18.97;;
15153;SDS011;7677;41.896;25.004;2022-11-15T14:29:58;49.07;;;27.47;;
15153;SDS011;7677;41.896;25.004;2022-11-15T14:32:27;49.30;;;23.67;;
15153;SDS011;7677;41.896;25.004;2022-11-15T14:34:56;52.53;;;25.20;;
15153;SDS011;7677;41.896;25.004;2022-11-15T14:37:26;50.50;;;25.70;;
15153;SDS011;7677;41.896;25.004;2022-11-15T14:39:56;41.00;;;21.70;;
15153;SDS011;7677;41.896;25.004;2022-11-15T14:42:24;36.80;;;19.50;;
15153;SDS011;7677;41.896;25.004;2022-11-15T14:44:51;32.07;;;17.90;;
15153;SDS011;7677;41.896;25.004;2022-11-15T14:47:18;30.87;;;16.47;;
15153;SDS011;7677;41.896;25.004;2022-11-15T14:49:46;27.50;;;16.73;;
15153;SDS011;7677;41.896;25.004;2022-11-15T14:52:23;28.83;;;14.97;;
15153;SDS011;7677;41.896;25.004;2022-11-15T14:54:53;28.33;;;16.67;;
15153;SDS011;7677;41.896;25.004;2022-11-15T14:57:20;33.77;;;17.77;;
15153;SDS011;7677;41.896;25.004;2022-11-15T14:59:47;28.90;;;17.17;;
15153;SDS011;7677;41.896;25.004;2022-11-15T15:02:16;26.87;;;16.37;;
15153;SDS011;7677;41.896;25.004;2022-11-15T15:04:45;27.53;;;15.60;;
15153;SDS011;7677;41.896;25.004;2022-11-15T15:07:12;30.00;;;16.53;;
15153;SDS011;7677;41.896;25.004;2022-11-15T15:09:41;30.43;;;17.00;;
15153;SDS011;7677;41.896;25.004;2022-11-15T15:12:15;30.13;;;17.80;;
15153;SDS011;7677;41.896;25.004;2022-11-15T15:14:43;27.30;;;16.70;;
15153;SDS011;7677;41.896;25.004;2022-11-15T15:17:11;25.03;;;15.33;;
15153;SDS011;7677;41.896;25.004;2022-11-15T15:19:38;26.53;;;16.70;;
15153;SDS011;7677;41.896;25.004;2022-11-15T15:22:05;25.43;;;15.60;;
15153;SDS011;7677;41.896;25.004;2022-11-15T15:24:34;24.43;;;16.20;;
15153;SDS011;7677;41.896;25.004;2022-11-15T15:27:03;31.73;;;17.40;;
15153;SDS011;7677;41.896;25.004;2022-11-15T15:29:30;27.13;;;15.80;;
15153;SDS011;7677;41.896;25.004;2022-11-15T15:31:58;30.60;;;16.63;;
15153;SDS011;7677;41.896;25.004;2022-11-15T15:34:25;28.43;;;16.10;;
15153;SDS011;7677;41.896;25.004;2022-11-15T15:37:05;25.97;;;14.67;;
15153;SDS011;7677;41.896;25.004;2022-11-15T15:39:34;28.83;;;20.33;;
15153;SDS011;7677;41.896;25.004;2022-11-15T15:42:01;25.63;;;15.67;;
15153;SDS011;7677;41.896;25.004;2022-11-15T15:44:30;23.90;;;15.40;;
15153;SDS011;7677;41.896;25.004;2022-11-15T15:46:57;32.27;;;17.47;;
15153;SDS011;7677;41.896;25.004;2022-11-15T15:49:24;25.83;;;14.83;;
15153;SDS011;7677;41.896;25.004;2022-11-15T15:51:52;26.73;;;17.00;;
15153;SDS011;7677;41.896;25.004;2022-11-15T15:54:19;27.27;;;16.73;;
15153;SDS011;7677;41.896;25.004;2022-11-15T15:56:46;29.03;;;17.53;;
15153;SDS011;7677;41.896;25.004;2022-11-15T15:59:13;28.33;;;17.23;;
15153;SDS011;7677;41.896;25.004;2022-11-15T16:01:42;28.97;;;19.30;;
15153;SDS011;7677;41.896;25.004;2022-11-15T16:04:09;33.27;;;20.80;;
15153;SDS011;7677;41.896;25.004;2022-11-15T16:06:37;34.10;;;20.77;;
15153;SDS011;7677;41.896;25.004;2022-11-15T16:09:08;30.63;;;20.33;;
15153;SDS011;7677;41.896;25.004;2022-11-15T16:11:38;31.30;;;20.53;;
15153;SDS011;7677;41.896;25.004;2022-11-15T16:14:06;32.50;;;21.97;;
15153;SDS011;7677;41.896;25.004;2022-11-15T16:16:34;30.67;;;19.30;;
15153;SDS011;7677;41.896;25.004;2022-11-15T16:19:02;34.67;;;20.20;;
15153;SDS011;7677;41.896;25.004;2022-11-15T16:21:30;34.27;;;18.30;;
15153;SDS011;7677;41.896;25.004;2022-11-15T16:23:57;26.13;;;15.63;;
15153;SDS011;7677;41.896;25.004;2022-11-15T16:26:25;26.47;;;14.80;;
15153;SDS011;7677;41.896;25.004;2022-11-15T16:28:54;26.13;;;16.40;;
15153;SDS011;7677;41.896;25.004;2022-11-15T16:31:21;31.13;;;18.83;;
15153;SDS011;7677;41.896;25.004;2022-11-15T16:33:48;28.20;;;16.40;;
15153;SDS011;7677;41.896;25.004;2022-11-15T16:36:20;27.07;;;18.43;;
15153;SDS011;7677;41.896;25.004;2022-11-15T16:38:48;29.13;;;17.77;;
15153;SDS011;7677;41.896;25.004;2022-11-15T16:41:15;25.17;;;16.50;;
15153;SDS011;7677;41.896;25.004;2022-11-15T16:43:43;29.27;;;16.87;;
15153;SDS011;7677;41.896;25.004;2022-11-15T16:46:13;24.83;;;15.57;;
15153;SDS011;7677;41.896;25.004;2022-11-15T16:48:41;28.50;;;15.43;;
15153;SDS011;7677;41.896;25.004;2022-11-15T16:51:08;24.10;;;14.67;;
15153;SDS011;7677;41.896;25.004;2022-11-15T16:53:37;29.20;;;16.17;;
15153;SDS011;7677;41.896;25.004;2022-11-15T16:56:10;29.33;;;15.73;;
15153;SDS011;7677;41.896;25.004;2022-11-15T16:58:49;26.83;;;15.77;;
15153;SDS011;7677;41.896;25.004;2022-11-15T17:01:17;26.90;;;15.47;;
15153;SDS011;7677;41.896;25.004;2022-11-15T17:03:46;29.67;;;16.40;;
15153;SDS011;7677;41.896;25.004;2022-11-15T17:06:13;25.67;;;15.60;;
15153;SDS011;7677;41.896;25.004;2022-11-15T17:08:44;25.80;;;15.20;;
15153;SDS011;7677;41.896;25.004;2022-11-15T17:11:12;26.70;;;15.17;;
15153;SDS011;7677;41.896;25.004;2022-11-15T17:13:41;24.07;;;14.63;;
15153;SDS011;7677;41.896;25.004;2022-11-15T17:16:10;27.83;;;16.23;;
15153;SDS011;7677;41.896;25.004;2022-11-15T17:18:37;26.00;;;15.30;;
15153;SDS011;7677;41.896;25.004;2022-11-15T17:21:05;25.33;;;14.37;;
15153;SDS011;7677;41.896;25.004;2022-11-15T17:23:34;23.37;;;15.00;;
15153;SDS011;7677;41.896;25.004;2022-11-15T17:26:02;24.17;;;14.00;;
15153;SDS011;7677;41.896;25.004;2022-11-15T17:28:30;30.00;;;15.73;;
15153;SDS011;7677;41.896;25.004;2022-11-15T17:30:57;24.40;;;14.77;;
15153;SDS011;7677;41.896;25.004;2022-11-15T17:33:25;23.83;;;13.23;;
15153;SDS011;7677;41.896;25.004;2022-11-15T17:35:56;21.50;;;13.27;;
15153;SDS011;7677;41.896;25.004;2022-11-15T17:38:23;21.93;;;12.20;;
15153;SDS011;7677;41.896;25.004;2022-11-15T17:41:01;24.93;;;14.23;;
15153;SDS011;7677;41.896;25.004;2022-11-15T17:43:31;23.33;;;13.40;;
15153;SDS011;7677;41.896;25.004;2022-11-15T17:45:59;22.70;;;13.40;;
15153;SDS011;7677;41.896;25.004;2022-11-15T17:48:28;21.20;;;13.13;;
15153;SDS011;7677;41.896;25.004;2022-11-15T17:50:56;21.63;;;13.27;;
15153;SDS011;7677;41.896;25.004;2022-11-15T17:53:24;22.00;;;12.33;;
15153;SDS011;7677;41.896;25.004;2022-11-15T17:55:52;21.30;;;12.70;;
15153;SDS011;7677;41.896;25.004;2022-11-15T17:58:21;24.07;;;13.10;;
15153;SDS011;7677;41.896;25.004;2022-11-15T18:00:50;22.20;;;12.50;;
15153;SDS011;7677;41.896;25.004;2022-11-15T18:03:17;22.60;;;12.13;;
15153;SDS011;7677;41.896;25.004;2022-11-15T18:05:44;23.67;;;13.17;;
15153;SDS011;7677;41.896;25.004;2022-11-15T18:08:12;25.17;;;13.20;;
15153;SDS011;7677;41.896;25.004;2022-11-15T18:10:42;26.50;;;13.20;;
15153;SDS011;7677;41.896;25.004;2022-11-15T18:13:09;20.70;;;11.43;;
15153;SDS011;7677;41.896;25.004;2022-11-15T18:15:37;23.87;;;12.10;;
15153;SDS011;7677;41.896;25.004;2022-11-15T18:18:05;23.00;;;11.67;;
15153;SDS011;7677;41.896;25.004;2022-11-15T18:20:32;20.57;;;11.47;;
15153;SDS011;7677;41.896;25.004;2022-11-15T18:22:59;21.97;;;11.03;;
15153;SDS011;7677;41.896;25.004;2022-11-15T18:25:26;18.57;;;10.50;;
15153;SDS011;7677;41.896;25.004;2022-11-15T18:27:54;20.93;;;12.43;;
15153;SDS011;7677;41.896;25.004;2022-11-15T18:30:21;19.97;;;11.33;;
15153;SDS011;7677;41.896;25.004;2022-11-15T18:32:50;15.10;;;10.53;;
15153;SDS011;7677;41.896;25.004;2022-11-15T18:35:18;24.93;;;12.13;;
15153;SDS011;7677;41.896;25.004;2022-11-15T18:37:45;20.93;;;11.87;;
15153;SDS011;7677;41.896;25.004;2022-11-15T18:40:12;19.83;;;11.87;;
15153;SDS011;7677;41.896;25.004;2022-11-15T18:42:40;23.80;;;12.83;;
15153;SDS011;7677;41.896;25.004;2022-11-15T18:45:08;21.37;;;11.63;;
15153;SDS011;7677;41.896;25.004;2022-11-15T18:47:36;22.73;;;11.97;;
15153;SDS011;7677;41.896;25.004;2022-11-15T18:50:06;19.00;;;11.27;;
15153;SDS011;7677;41.896;25.004;2022-11-15T18:52:34;21.10;;;11.97;;
15153;SDS011;7677;41.896;25.004;2022-11-15T18:55:01;17.30;;;10.90;;
15153;SDS011;7677;41.896;25.004;2022-11-15T18:57:29;21.70;;;12.53;;
15153;SDS011;7677;41.896;25.004;2022-11-15T18:59:57;16.93;;;11.43;;
15153;SDS011;7677;41.896;25.004;2022-11-15T19:02:24;20.33;;;11.47;;
15153;SDS011;7677;41.896;25.004;2022-11-15T19:04:52;22.43;;;11.60;;
15153;SDS011;7677;41.896;25.004;2022-11-15T19:07:20;21.10;;;11.83;;
15153;SDS011;7677;41.896;25.004;2022-11-15T19:09:48;21.83;;;12.37;;
15153;SDS011;7677;41.896;25.004;2022-11-15T19:12:15;24.40;;;13.40;;
15153;SDS011;7677;41.896;25.004;2022-11-15T19:14:42;21.23;;;11.73;;
15153;SDS011;7677;41.896;25.004;2022-11-15T19:17:09;24.43;;;12.33;;
15153;SDS011;7677;41.896;25.004;2022-11-15T19:19:37;27.10;;;11.37;;
15153;SDS011;7677;41.896;25.004;2022-11-15T19:22:04;20.77;;;11.33;;
15153;SDS011;7677;41.896;25.004;2022-11-15T19:24:33;17.10;;;10.77;;
15153;SDS011;7677;41.896;25.004;2022-11-15T19:27:00;24.57;;;12.53;;
15153;SDS011;7677;41.896;25.004;2022-11-15T19:29:28;20.03;;;10.47;;
15153;SDS011;7677;41.896;25.004;2022-11-15T19:31:55;18.47;;;10.87;;
15153;SDS011;7677;41.896;25.004;2022-11-15T19:34:22;23.70;;;12.33;;
15153;SDS011;7677;41.896;25.004;2022-11-15T19:36:50;17.90;;;11.23;;
15153;SDS011;7677;41.896;25.004;2022-11-15T19:39:17;19.70;;;11.93;;
15153;SDS011;7677;41.896;25.004;2022-11-15T19:41:45;19.67;;;12.30;;
15153;SDS011;7677;41.896;25.004;2022-11-15T19:44:14;23.53;;;12.27;;
15153;SDS011;7677;41.896;25.004;2022-11-15T19:46:43;17.90;;;10.63;;